createdAt,value
2023-03-06T00:00:37.910Z,7.05
2023-03-06T00:03:04.519Z,5.65
2023-03-06T00:05:30.972Z,6.55
2023-03-06T00:07:57.446Z,6.47
2023-03-06T00:10:25.972Z,6.72
2023-03-06T00:12:53.593Z,8.02
2023-03-06T00:15:20.163Z,7.03
2023-03-06T00:17:46.683Z,8.38
2023-03-06T00:20:13.709Z,8.18
2023-03-06T00:22:40.418Z,6.20
2023-03-06T00:25:07.506Z,7.53
2023-03-06T00:27:33.921Z,7.22
2023-03-06T00:30:00.529Z,7.25
2023-03-06T00:32:27.296Z,7.63
2023-03-06T00:34:54.549Z,8.73
2023-03-06T00:37:21.646Z,7.53
2023-03-06T00:39:48.028Z,7.68
2023-03-06T00:42:14.520Z,6.60
2023-03-06T00:44:40.944Z,7.38
2023-03-06T00:47:07.424Z,4.50
2023-03-06T00:49:33.995Z,8.50
2023-03-06T00:52:00.418Z,6.35
2023-03-06T00:54:26.873Z,6.93
2023-03-06T00:56:53.294Z,9.80
2023-03-06T00:59:19.751Z,6.25
2023-03-06T01:01:46.174Z,6.90
2023-03-06T01:04:12.675Z,6.63
2023-03-06T01:06:39.083Z,5.85
2023-03-06T01:09:05.530Z,7.55
2023-03-06T01:11:31.935Z,8.30
2023-03-06T01:13:58.429Z,8.82
2023-03-06T01:16:24.883Z,9.18
2023-03-06T01:18:51.373Z,9.07
2023-03-06T01:21:17.784Z,6.20
2023-03-06T01:23:44.210Z,9.27
2023-03-06T01:26:10.666Z,8.15
2023-03-06T01:28:37.483Z,7.22
2023-03-06T01:31:04.228Z,7.38
2023-03-06T01:33:30.709Z,6.43
2023-03-06T01:35:57.178Z,7.13
2023-03-06T01:38:23.639Z,8.40
2023-03-06T01:40:50.036Z,6.30
2023-03-06T01:43:25.222Z,8.15
2023-03-06T01:45:51.576Z,7.00
2023-03-06T01:48:21.957Z,7.97
2023-03-06T01:50:48.779Z,10.00
2023-03-06T01:53:15.178Z,10.45
2023-03-06T01:55:41.595Z,8.95
2023-03-06T01:58:10.135Z,11.38
2023-03-06T02:00:36.535Z,9.98
2023-03-06T02:03:02.814Z,8.68
2023-03-06T02:05:29.238Z,10.40
2023-03-06T02:07:55.675Z,11.98
2023-03-06T02:10:22.118Z,9.73
2023-03-06T02:12:48.581Z,9.50
2023-03-06T02:15:16.857Z,12.02
2023-03-06T02:17:44.033Z,11.32
2023-03-06T02:20:21.002Z,10.98
2023-03-06T02:23:20.653Z,11.32
2023-03-06T02:28:18.403Z,10.43
2023-03-06T02:30:45.576Z,11.75
2023-03-06T02:33:13.522Z,10.05
2023-03-06T02:35:39.979Z,12.80
2023-03-06T02:38:09.629Z,10.80
2023-03-06T02:40:36.097Z,13.65
2023-03-06T02:43:02.606Z,11.52
2023-03-06T02:45:33.653Z,12.15
2023-03-06T02:48:00.108Z,13.38
2023-03-06T02:50:26.525Z,12.55
2023-03-06T02:52:52.969Z,10.65
2023-03-06T02:55:19.402Z,10.82
2023-03-06T02:57:45.829Z,10.10
2023-03-06T03:00:12.415Z,9.52
2023-03-06T03:02:38.857Z,7.93
2023-03-06T03:05:05.748Z,9.35
2023-03-06T03:07:32.203Z,8.40
2023-03-06T03:09:58.587Z,9.73
2023-03-06T03:12:25.028Z,7.32
2023-03-06T03:14:51.464Z,5.22
2023-03-06T03:17:17.894Z,6.72
2023-03-06T03:19:44.335Z,6.80
2023-03-06T03:22:10.803Z,5.15
2023-03-06T03:24:37.234Z,5.10
2023-03-06T03:27:03.773Z,4.80
2023-03-06T03:29:30.181Z,4.05
2023-03-06T03:31:56.609Z,2.97
2023-03-06T03:34:23.037Z,3.75
2023-03-06T03:36:49.413Z,2.85
2023-03-06T03:39:15.820Z,2.97
2023-03-06T03:41:42.276Z,2.78
2023-03-06T03:44:08.955Z,3.65
2023-03-06T03:46:35.461Z,3.55
2023-03-06T03:49:01.889Z,4.40
2023-03-06T03:51:28.311Z,3.25
2023-03-06T03:53:54.719Z,5.25
2023-03-06T03:56:21.114Z,3.13
2023-03-06T03:58:47.543Z,3.50
2023-03-06T04:01:14.033Z,4.60
2023-03-06T04:03:40.474Z,3.38
2023-03-06T04:06:07.153Z,3.35
2023-03-06T04:08:33.623Z,2.95
2023-03-06T04:11:00.053Z,4.80
2023-03-06T04:13:26.534Z,4.00
2023-03-06T04:15:53.886Z,3.33
2023-03-06T04:18:20.521Z,4.75
2023-03-06T04:20:47.010Z,5.13
2023-03-06T04:23:13.418Z,4.32
2023-03-06T04:25:39.913Z,2.95
2023-03-06T04:28:06.500Z,5.15
2023-03-06T04:30:33.062Z,5.35
2023-03-06T04:32:59.473Z,3.70
2023-03-06T04:35:25.918Z,3.80
2023-03-06T04:37:52.335Z,2.28
2023-03-06T04:40:20.418Z,5.50
2023-03-06T04:42:47.435Z,5.13
2023-03-06T04:45:14.083Z,1.00
2023-03-06T04:47:40.537Z,2.72
2023-03-06T04:50:07.377Z,1.73
2023-03-06T04:52:33.763Z,3.97
2023-03-06T04:55:00.184Z,1.58
2023-03-06T04:57:26.589Z,2.10
2023-03-06T04:59:53.015Z,2.78
2023-03-06T05:02:19.446Z,3.63
2023-03-06T05:04:45.943Z,2.15
2023-03-06T05:07:12.382Z,2.70
2023-03-06T05:09:39.212Z,3.75
2023-03-06T05:12:05.832Z,6.95
2023-03-06T05:14:32.266Z,1.95
2023-03-06T05:16:58.697Z,4.88
2023-03-06T05:19:25.131Z,3.33
2023-03-06T05:21:51.565Z,5.03
2023-03-06T05:24:18.007Z,4.45
2023-03-06T05:26:44.454Z,5.60
2023-03-06T05:29:10.836Z,7.18
2023-03-06T05:31:37.285Z,6.85
2023-03-06T05:34:03.703Z,7.93
2023-03-06T05:36:30.153Z,7.05
2023-03-06T05:38:56.576Z,7.82
2023-03-06T05:41:23.000Z,8.85
2023-03-06T05:43:49.393Z,8.98
2023-03-06T05:46:15.889Z,8.73
2023-03-06T05:48:42.392Z,7.13
2023-03-06T05:51:09.694Z,8.00
2023-03-06T05:53:36.088Z,9.38
2023-03-06T05:56:03.889Z,6.72
2023-03-06T05:58:30.759Z,7.60
2023-03-06T06:00:57.228Z,6.43
2023-03-06T06:03:23.793Z,6.40
2023-03-06T06:05:50.619Z,7.03
2023-03-06T06:08:17.056Z,7.35
2023-03-06T06:10:43.503Z,7.10
2023-03-06T06:13:09.956Z,7.30
2023-03-06T06:15:38.219Z,7.53
2023-03-06T06:18:04.683Z,5.95
2023-03-06T06:20:31.091Z,7.22
2023-03-06T06:22:57.532Z,6.22
2023-03-06T06:25:23.963Z,7.13
2023-03-06T06:27:50.362Z,6.68
2023-03-06T06:30:17.045Z,9.05
2023-03-06T06:32:43.476Z,6.97
2023-03-06T06:35:10.091Z,7.75
2023-03-06T06:37:36.513Z,6.20
2023-03-06T06:40:03.500Z,7.30
2023-03-06T06:42:36.958Z,8.98
2023-03-06T06:45:06.010Z,7.82
2023-03-06T06:47:32.826Z,8.82
2023-03-06T06:49:59.298Z,10.07
2023-03-06T06:52:25.856Z,7.40
2023-03-06T06:54:52.662Z,6.03
2023-03-06T06:57:19.042Z,7.80
2023-03-06T06:59:45.476Z,9.80
2023-03-06T07:02:12.645Z,10.63
2023-03-06T07:04:56.214Z,5.38
2023-03-06T07:07:28.157Z,8.32
2023-03-06T07:09:55.115Z,6.68
2023-03-06T07:12:21.499Z,5.82
2023-03-06T07:14:47.908Z,10.70
2023-03-06T07:17:14.305Z,16.02
2023-03-06T07:19:40.724Z,9.88
2023-03-06T07:22:07.112Z,9.93
2023-03-06T07:24:33.824Z,11.38
2023-03-06T07:27:00.222Z,10.07
2023-03-06T07:29:26.671Z,14.02
2023-03-06T07:31:53.081Z,9.32
2023-03-06T07:34:19.508Z,13.10
2023-03-06T07:36:45.892Z,11.73
2023-03-06T07:39:12.362Z,12.93
2023-03-06T07:41:38.766Z,13.18
2023-03-06T07:44:05.186Z,7.93
2023-03-06T07:46:31.699Z,9.82
2023-03-06T07:48:58.126Z,10.20
2023-03-06T07:51:24.563Z,11.88
2023-03-06T07:53:51.005Z,11.73
2023-03-06T07:56:17.408Z,9.82
2023-03-06T07:58:44.638Z,9.70
2023-03-06T08:01:13.060Z,7.05
2023-03-06T08:03:39.488Z,9.05
2023-03-06T08:06:16.787Z,6.85
2023-03-06T08:08:44.004Z,7.43
2023-03-06T08:11:11.538Z,6.57
2023-03-06T08:13:38.160Z,6.60
2023-03-06T08:16:04.855Z,9.50
2023-03-06T08:18:31.343Z,5.15
2023-03-06T08:21:21.593Z,5.97
2023-03-06T08:23:48.071Z,5.05
2023-03-06T08:26:22.329Z,4.63
2023-03-06T08:28:48.785Z,6.88
2023-03-06T08:31:24.105Z,4.85
2023-03-06T08:33:50.528Z,6.28
2023-03-06T08:36:16.977Z,5.40
2023-03-06T08:38:43.400Z,3.45
2023-03-06T08:41:09.837Z,4.65
2023-03-06T08:43:36.289Z,5.97
2023-03-06T08:46:02.819Z,4.97
2023-03-06T08:48:29.288Z,5.70
2023-03-06T08:50:55.751Z,5.78
2023-03-06T08:53:28.022Z,4.45
2023-03-06T08:56:03.539Z,5.55
2023-03-06T08:58:29.977Z,6.13
2023-03-06T09:00:56.663Z,5.95
2023-03-06T09:03:23.139Z,10.18
2023-03-06T09:05:49.842Z,7.30
2023-03-06T09:08:16.357Z,7.53
2023-03-06T09:10:46.979Z,12.82
2023-03-06T09:13:13.504Z,8.68
2023-03-06T09:15:39.933Z,9.50
2023-03-06T09:18:06.472Z,10.93
2023-03-06T09:20:32.929Z,16.45
2023-03-06T09:22:59.331Z,12.20
2023-03-06T09:25:25.742Z,9.93
2023-03-06T09:28:08.761Z,10.70
2023-03-06T09:30:37.358Z,10.52
2023-03-06T09:33:04.194Z,11.88
2023-03-06T09:35:30.681Z,14.05
2023-03-06T09:37:57.226Z,11.40
2023-03-06T09:40:52.714Z,11.63
2023-03-06T09:43:21.337Z,8.82
2023-03-06T09:45:47.766Z,11.15
2023-03-06T09:48:14.786Z,9.90
2023-03-06T09:50:45.961Z,9.90
2023-03-06T09:53:18.277Z,10.48
2023-03-06T09:55:46.758Z,10.73
2023-03-06T09:58:17.008Z,8.80
2023-03-06T10:01:22.949Z,8.77
2023-03-06T10:04:06.102Z,8.73
2023-03-06T10:06:35.486Z,7.05
2023-03-06T10:09:19.915Z,7.97
2023-03-06T10:12:05.182Z,9.07
2023-03-06T10:14:46.660Z,8.35
2023-03-06T10:17:20.677Z,7.68
2023-03-06T10:19:47.141Z,7.32
2023-03-06T10:22:33.726Z,8.02
2023-03-06T10:25:18.875Z,8.80
2023-03-06T10:27:49.111Z,5.47
2023-03-06T10:30:51.015Z,8.50
2023-03-06T10:33:53.002Z,7.07
2023-03-06T10:36:20.006Z,4.90
2023-03-06T10:38:49.496Z,5.90
2023-03-06T10:41:26.032Z,4.85
2023-03-06T10:44:01.314Z,5.07
2023-03-06T10:46:49.113Z,4.53
2023-03-06T10:49:35.712Z,6.05
2023-03-06T10:52:14.878Z,6.80
2023-03-06T10:54:44.599Z,6.28
2023-03-06T10:57:28.353Z,7.10
2023-03-06T10:59:58.162Z,6.25
2023-03-06T11:02:35.277Z,4.32
2023-03-06T11:05:01.922Z,4.47
2023-03-06T11:07:32.456Z,4.63
2023-03-06T11:09:58.780Z,5.15
2023-03-06T11:12:38.694Z,5.00
2023-03-06T11:15:14.134Z,6.60
2023-03-06T11:18:08.626Z,5.88
2023-03-06T11:20:51.159Z,5.22
2023-03-06T11:23:31.688Z,4.60
2023-03-06T11:26:13.301Z,2.72
2023-03-06T11:28:45.810Z,1.50
2023-03-06T11:31:33.459Z,3.60
2023-03-06T11:36:47.279Z,4.70
2023-03-06T11:39:19.664Z,1.52
2023-03-06T11:42:03.721Z,1.65
2023-03-06T11:44:57.474Z,2.03
2023-03-06T11:47:38.911Z,2.47
2023-03-06T11:50:17.595Z,1.98
2023-03-06T11:52:53.562Z,2.47
2023-03-06T11:57:56.871Z,0.57
2023-03-06T12:00:38.636Z,3.25
2023-03-06T12:05:35.537Z,2.53
2023-03-06T12:08:14.142Z,5.97
2023-03-06T12:10:51.444Z,1.50
2023-03-06T12:13:46.969Z,2.05
2023-03-06T12:16:20.659Z,2.35
2023-03-06T12:18:50.132Z,1.10
2023-03-06T12:22:04.936Z,2.08
2023-03-06T12:24:52.321Z,2.00
2023-03-06T12:27:33.597Z,3.13
2023-03-06T12:30:23.088Z,1.90
2023-03-06T12:32:52.389Z,0.93
2023-03-06T12:35:55.904Z,1.98
2023-03-06T12:38:31.396Z,2.63
2023-03-06T12:41:09.335Z,2.30
2023-03-06T12:43:48.824Z,2.13
2023-03-06T12:46:22.899Z,0.85
2023-03-06T12:49:31.491Z,2.13
2023-03-06T12:51:58.675Z,1.35
2023-03-06T12:54:28.190Z,0.68
2023-03-06T12:56:55.372Z,0.85
2023-03-06T12:59:40.206Z,3.30
2023-03-06T13:02:17.336Z,1.73
2023-03-06T13:05:05.468Z,3.88
2023-03-06T13:07:48.377Z,2.50
2023-03-06T13:10:34.938Z,1.20
2023-03-06T13:13:24.741Z,0.95
2023-03-06T13:16:18.337Z,0.98
2023-03-06T13:18:44.673Z,2.97
2023-03-06T13:21:41.610Z,1.30
2023-03-06T13:24:21.113Z,3.50
2023-03-06T13:26:56.492Z,3.22
2023-03-06T13:29:38.128Z,3.22
2023-03-06T13:32:15.371Z,3.00
2023-03-06T13:34:43.209Z,4.25
2023-03-06T13:37:18.627Z,1.42
2023-03-06T13:39:57.058Z,3.00
2023-03-06T13:42:33.160Z,6.93
2023-03-06T13:45:27.350Z,5.03
2023-03-06T13:48:33.831Z,2.72
2023-03-06T13:50:43.896Z,1.95
2023-03-06T13:53:35.360Z,4.22
2023-03-06T13:56:20.367Z,2.92
2023-03-06T13:59:05.536Z,3.17
2023-03-06T14:01:53.814Z,1.63
2023-03-06T14:04:46.663Z,2.13
2023-03-06T14:07:29.865Z,0.80
2023-03-06T14:10:14.586Z,1.88
2023-03-06T14:12:41.817Z,0.88
2023-03-06T14:15:17.310Z,0.95
2023-03-06T14:17:57.302Z,2.75
2023-03-06T14:20:46.481Z,2.63
2023-03-06T14:23:16.364Z,2.55
2023-03-06T14:28:21.898Z,2.35
2023-03-06T14:30:52.094Z,1.60
2023-03-06T14:33:33.093Z,2.17
2023-03-06T14:36:01.363Z,4.68
2023-03-06T14:38:28.696Z,1.00
2023-03-06T14:40:55.174Z,1.30
2023-03-06T14:43:23.224Z,2.97
2023-03-06T14:45:59.496Z,1.45
2023-03-06T14:48:46.314Z,2.38
2023-03-06T14:51:21.859Z,1.25
2023-03-06T14:53:49.544Z,0.90
2023-03-06T14:56:20.770Z,1.50
2023-03-06T14:58:56.074Z,0.80
2023-03-06T15:01:44.369Z,0.45
2023-03-06T15:04:23.631Z,0.50
2023-03-06T15:06:50.091Z,2.30
2023-03-06T15:09:18.065Z,2.72
2023-03-06T15:12:04.031Z,1.20
2023-03-06T15:14:38.042Z,2.78
2023-03-06T15:17:19.337Z,2.10
2023-03-06T15:19:46.733Z,0.82
2023-03-06T15:22:34.434Z,0.95
2023-03-06T15:25:11.924Z,3.15
2023-03-06T15:27:38.340Z,0.43
2023-03-06T15:30:20.630Z,0.38
2023-03-06T15:32:47.050Z,0.70
2023-03-06T15:35:26.584Z,1.55
2023-03-06T15:37:53.032Z,1.05
2023-03-06T15:40:20.193Z,2.42
2023-03-06T15:42:46.688Z,1.13
2023-03-06T15:45:18.054Z,2.40
2023-03-06T15:47:45.139Z,1.15
2023-03-06T15:50:24.264Z,0.50
2023-03-06T15:52:50.813Z,1.67
2023-03-06T15:55:26.364Z,1.73
2023-03-06T15:58:02.217Z,0.13
2023-03-06T16:00:35.664Z,1.27
2023-03-06T16:03:02.086Z,0.28
2023-03-06T16:05:28.595Z,1.38
2023-03-06T16:07:55.209Z,1.83
2023-03-06T16:10:23.344Z,0.98
2023-03-06T16:12:51.300Z,1.02
2023-03-06T16:15:20.773Z,3.40
2023-03-06T16:17:47.193Z,1.15
2023-03-06T16:20:15.197Z,3.20
2023-03-06T16:22:41.660Z,0.35
2023-03-06T16:25:08.416Z,0.57
2023-03-06T16:27:34.826Z,2.00
2023-03-06T16:30:01.278Z,3.50
2023-03-06T16:32:28.819Z,1.35
2023-03-06T16:34:55.327Z,0.88
2023-03-06T16:37:21.772Z,0.47
2023-03-06T16:39:48.164Z,2.67
2023-03-06T16:42:14.654Z,0.98
2023-03-06T16:44:41.066Z,0.95
2023-03-06T16:47:10.102Z,1.98
2023-03-06T16:49:36.579Z,1.80
2023-03-06T16:52:03.061Z,1.40
2023-03-06T16:54:29.563Z,1.10
2023-03-06T16:56:55.990Z,3.88
2023-03-06T16:59:22.458Z,4.88
2023-03-06T17:01:48.894Z,2.30
2023-03-06T17:04:15.398Z,1.30
2023-03-06T17:06:41.921Z,2.65
2023-03-06T17:09:08.594Z,1.73
2023-03-06T17:11:36.123Z,1.80
2023-03-06T17:14:02.632Z,1.67
2023-03-06T17:16:29.044Z,3.10
2023-03-06T17:18:55.489Z,2.47
2023-03-06T17:21:21.935Z,2.47
2023-03-06T17:23:48.370Z,2.55
2023-03-06T17:26:16.301Z,1.45
2023-03-06T17:28:42.787Z,3.15
2023-03-06T17:31:19.649Z,2.58
2023-03-06T17:33:46.309Z,1.17
2023-03-06T17:36:12.884Z,3.53
2023-03-06T17:38:39.348Z,2.25
2023-03-06T17:41:06.787Z,1.98
2023-03-06T17:43:33.327Z,4.03
2023-03-06T17:46:10.422Z,1.30
2023-03-06T17:48:36.930Z,3.90
2023-03-06T17:51:03.631Z,2.45
2023-03-06T17:53:30.076Z,1.23
2023-03-06T17:55:56.519Z,1.00
2023-03-06T17:58:22.943Z,2.35
2023-03-06T18:00:49.375Z,2.65
2023-03-06T18:03:15.795Z,2.53
2023-03-06T18:05:42.213Z,3.85
2023-03-06T18:08:08.655Z,3.00
2023-03-06T18:10:35.085Z,2.80
2023-03-06T18:13:01.548Z,1.55
2023-03-06T18:15:28.046Z,4.97
2023-03-06T18:17:55.021Z,2.25
2023-03-06T18:20:21.461Z,2.58
2023-03-06T18:22:47.881Z,5.03
2023-03-06T18:25:14.392Z,2.80
2023-03-06T18:27:40.849Z,4.32
2023-03-06T18:30:07.791Z,3.33
2023-03-06T18:32:34.235Z,6.07
2023-03-06T18:35:00.678Z,3.90
2023-03-06T18:37:27.104Z,3.22
2023-03-06T18:39:53.538Z,2.58
2023-03-06T18:42:19.957Z,3.30
2023-03-06T18:44:46.408Z,1.88
2023-03-06T18:47:12.899Z,2.03
2023-03-06T18:49:40.586Z,3.83
2023-03-06T18:52:07.702Z,5.00
2023-03-06T18:54:34.136Z,6.45
2023-03-06T18:57:00.542Z,8.38
2023-03-06T18:59:27.002Z,6.55
2023-03-06T19:01:53.430Z,2.67
2023-03-06T19:04:19.971Z,2.70
2023-03-06T19:06:49.511Z,4.50
2023-03-06T19:09:15.949Z,2.83
2023-03-06T19:11:42.385Z,2.63
2023-03-06T19:14:09.030Z,4.65
2023-03-06T19:16:35.474Z,1.10
2023-03-06T19:19:02.428Z,1.05
2023-03-06T19:21:33.924Z,4.38
2023-03-06T19:24:01.805Z,3.05
2023-03-06T19:26:28.284Z,2.97
2023-03-06T19:28:54.840Z,4.90
2023-03-06T19:31:23.456Z,3.95
2023-03-06T19:33:49.887Z,2.67
2023-03-06T19:36:16.860Z,3.22
2023-03-06T19:38:43.341Z,3.17
2023-03-06T19:41:11.528Z,3.70
2023-03-06T19:43:38.024Z,1.88
2023-03-06T19:46:04.736Z,1.63
2023-03-06T19:48:31.177Z,1.75
2023-03-06T19:51:04.394Z,2.72
2023-03-06T19:53:30.903Z,2.83
2023-03-06T19:56:08.416Z,2.90
2023-03-06T19:58:34.967Z,2.90
2023-03-06T20:01:12.048Z,2.75
2023-03-06T20:03:38.497Z,1.38
2023-03-06T20:06:05.471Z,2.58
2023-03-06T20:08:32.483Z,1.13
2023-03-06T20:10:58.978Z,3.35
2023-03-06T20:13:25.444Z,2.85
2023-03-06T20:15:51.922Z,2.47
2023-03-06T20:18:18.367Z,1.73
2023-03-06T20:20:44.788Z,1.38
2023-03-06T20:23:11.368Z,2.22
2023-03-06T20:25:38.181Z,2.70
2023-03-06T20:28:04.753Z,2.45
2023-03-06T20:30:37.816Z,2.05
2023-03-06T20:33:04.950Z,3.05
2023-03-06T20:35:32.742Z,2.70
2023-03-06T20:37:59.177Z,3.42
2023-03-06T20:40:25.701Z,2.33
2023-03-06T20:42:52.136Z,3.42
2023-03-06T20:45:18.578Z,2.20
2023-03-06T20:47:44.976Z,4.47
2023-03-06T20:50:11.565Z,3.20
2023-03-06T20:52:38.032Z,4.18
2023-03-06T20:55:04.866Z,4.80
2023-03-06T20:57:31.315Z,4.68
2023-03-06T20:59:57.792Z,6.95
2023-03-06T21:02:24.189Z,3.33
2023-03-06T21:04:50.723Z,3.65
2023-03-06T21:07:17.184Z,5.15
2023-03-06T21:09:43.611Z,4.35
2023-03-06T21:12:10.018Z,3.58
2023-03-06T21:14:37.986Z,4.03
2023-03-06T21:17:04.446Z,4.07
2023-03-06T21:19:30.879Z,3.58
2023-03-06T21:21:57.300Z,3.25
2023-03-06T21:24:23.740Z,5.03
2023-03-06T21:26:50.174Z,3.15
2023-03-06T21:29:16.882Z,3.42
2023-03-06T21:31:43.367Z,2.63
2023-03-06T21:34:09.786Z,2.38
2023-03-06T21:36:36.234Z,4.55
2023-03-06T21:39:02.687Z,2.78
2023-03-06T21:41:29.152Z,2.70
2023-03-06T21:43:56.406Z,4.03
2023-03-06T21:46:23.132Z,4.10
2023-03-06T21:48:49.561Z,2.42
2023-03-06T21:51:17.124Z,4.15
2023-03-06T21:53:43.845Z,4.15
2023-03-06T21:56:10.586Z,4.05
2023-03-06T21:58:37.151Z,3.28
2023-03-06T22:01:09.116Z,3.72
2023-03-06T22:03:35.523Z,2.78
2023-03-06T22:06:15.533Z,3.28
2023-03-06T22:08:42.182Z,3.53
2023-03-06T22:11:09.700Z,2.88
2023-03-06T22:13:36.616Z,3.38
2023-03-06T22:16:03.235Z,4.13
2023-03-06T22:18:29.649Z,2.85
2023-03-06T22:20:56.092Z,6.57
2023-03-06T22:23:22.614Z,4.10
2023-03-06T22:25:49.060Z,2.33
2023-03-06T22:28:15.523Z,3.33
2023-03-06T22:30:41.941Z,3.45
2023-03-06T22:33:08.343Z,2.90
2023-03-06T22:35:34.799Z,3.53
2023-03-06T22:38:01.203Z,3.30
2023-03-06T22:40:27.657Z,3.92
2023-03-06T22:42:54.087Z,3.50
2023-03-06T22:45:20.489Z,5.55
2023-03-06T22:47:46.975Z,5.60
2023-03-06T22:50:13.433Z,6.40
2023-03-06T22:52:39.863Z,5.00
2023-03-06T22:55:06.654Z,5.07
2023-03-06T22:57:33.119Z,7.47
2023-03-06T22:59:59.542Z,6.22
2023-03-06T23:02:25.983Z,7.20
2023-03-06T23:04:52.413Z,7.05
2023-03-06T23:07:21.966Z,5.88
2023-03-06T23:09:48.370Z,8.82
2023-03-06T23:12:14.794Z,8.30
2023-03-06T23:14:41.273Z,7.38
2023-03-06T23:17:07.815Z,8.98
2023-03-06T23:19:34.239Z,8.25
2023-03-06T23:22:00.662Z,8.07
2023-03-06T23:24:27.091Z,10.25
2023-03-06T23:26:53.517Z,9.27
2023-03-06T23:29:19.965Z,9.43
2023-03-06T23:31:46.373Z,11.07
2023-03-06T23:34:12.801Z,12.98
2023-03-06T23:36:39.197Z,11.50
2023-03-06T23:39:05.622Z,12.95
2023-03-06T23:41:32.020Z,11.95
2023-03-06T23:43:58.471Z,12.52
2023-03-06T23:46:24.967Z,15.07
2023-03-06T23:48:52.072Z,16.75
2023-03-06T23:51:19.814Z,14.32
2023-03-06T23:53:46.737Z,14.98
2023-03-06T23:56:13.200Z,16.08
2023-03-06T23:58:39.789Z,13.85
